createdAt,value
2023-03-10T00:03:35.376Z,633.00
2023-03-10T00:07:35.509Z,628.00
2023-03-10T00:11:35.653Z,634.00
2023-03-10T00:15:35.814Z,630.00
2023-03-10T00:19:35.882Z,626.00
2023-03-10T00:23:37.525Z,632.00
2023-03-10T00:27:36.151Z,630.00
2023-03-10T00:31:36.359Z,629.00
2023-03-10T00:35:36.429Z,628.00
2023-03-10T00:39:36.704Z,634.00
2023-03-10T00:43:36.683Z,633.00
2023-03-10T00:47:36.807Z,626.00
2023-03-10T00:51:36.937Z,636.00
2023-03-10T00:55:37.218Z,635.00
2023-03-10T00:59:49.474Z,636.00
2023-03-10T01:03:38.154Z,634.00
2023-03-10T01:07:37.092Z,636.00
2023-03-10T01:11:37.327Z,635.00
2023-03-10T01:15:37.246Z,635.00
2023-03-10T01:19:37.443Z,632.00
2023-03-10T01:23:37.624Z,634.00
2023-03-10T01:27:37.837Z,635.00
2023-03-10T01:31:38.769Z,637.00
2023-03-10T01:35:38.725Z,633.00
2023-03-10T01:39:38.398Z,634.00
2023-03-10T01:43:38.633Z,633.00
2023-03-10T01:47:38.854Z,631.00
2023-03-10T01:51:39.071Z,634.00
2023-03-10T01:55:39.257Z,631.00
2023-03-10T01:59:39.237Z,629.00
2023-03-10T02:03:39.205Z,629.00
2023-03-10T02:07:41.273Z,631.00
2023-03-10T02:11:39.228Z,629.00
2023-03-10T02:15:39.189Z,633.00
2023-03-10T02:19:39.182Z,628.00
2023-03-10T02:23:42.939Z,629.00
2023-03-10T02:27:40.104Z,630.00
2023-03-10T02:31:39.329Z,629.00
2023-03-10T02:35:39.097Z,632.00
2023-03-10T02:39:39.116Z,628.00
2023-03-10T02:43:39.039Z,623.00
2023-03-10T02:47:39.202Z,625.00
2023-03-10T02:51:38.988Z,627.00
2023-03-10T02:55:38.917Z,620.00
2023-03-10T02:59:38.872Z,628.00
2023-03-10T03:03:38.929Z,625.00
2023-03-10T03:07:38.821Z,620.00
2023-03-10T03:11:38.771Z,626.00
2023-03-10T03:15:38.743Z,623.00
2023-03-10T03:19:38.660Z,619.00
2023-03-10T03:23:38.702Z,624.00
2023-03-10T03:27:38.725Z,615.00
2023-03-10T03:31:38.665Z,621.00
2023-03-10T03:35:38.736Z,623.00
2023-03-10T03:39:38.621Z,617.00
2023-03-10T03:43:38.522Z,618.00
2023-03-10T03:47:38.728Z,619.00
2023-03-10T03:51:38.442Z,621.00
2023-03-10T03:55:38.440Z,617.00
2023-03-10T03:59:38.404Z,621.00
2023-03-10T04:03:38.332Z,616.00
2023-03-10T04:07:38.295Z,615.00
2023-03-10T04:11:38.258Z,618.00
2023-03-10T04:15:38.384Z,616.00
2023-03-10T04:19:38.271Z,619.00
2023-03-10T04:23:38.327Z,620.00
2023-03-10T04:27:38.169Z,616.00
2023-03-10T04:31:38.304Z,619.00
2023-03-10T04:35:38.166Z,616.00
2023-03-10T04:39:38.155Z,620.00
2023-03-10T04:43:38.553Z,619.00
2023-03-10T04:47:38.067Z,622.00
2023-03-10T04:51:37.992Z,623.00
2023-03-10T04:55:37.973Z,619.00
2023-03-10T04:59:37.967Z,621.00
2023-03-10T05:03:37.908Z,615.00
2023-03-10T05:07:37.853Z,598.00
2023-03-10T05:11:37.805Z,576.00
2023-03-10T05:15:37.801Z,549.00
2023-03-10T05:19:37.780Z,545.00
2023-03-10T05:23:37.853Z,532.00
2023-03-10T05:27:37.890Z,514.00
2023-03-10T05:31:38.121Z,507.00
2023-03-10T05:35:38.290Z,511.00
2023-03-10T05:39:38.356Z,510.00
2023-03-10T05:43:38.495Z,513.00
2023-03-10T05:47:38.622Z,511.00
2023-03-10T05:51:38.808Z,512.00
2023-03-10T05:55:38.925Z,509.00
2023-03-10T05:59:39.157Z,519.00
2023-03-10T06:03:39.289Z,514.00
2023-03-10T06:07:39.375Z,517.00
2023-03-10T06:11:39.501Z,521.00
2023-03-10T06:15:39.687Z,519.00
2023-03-10T06:19:39.817Z,518.00
2023-03-10T06:23:39.950Z,518.00
2023-03-10T06:27:40.050Z,520.00
2023-03-10T06:31:40.310Z,520.00
2023-03-10T06:35:40.404Z,522.00
2023-03-10T06:39:40.782Z,540.00
2023-03-10T06:43:40.816Z,549.00
2023-03-10T06:47:40.699Z,557.00
2023-03-10T06:51:40.839Z,568.00
2023-03-10T06:55:40.907Z,553.00
2023-03-10T06:59:41.029Z,549.00
2023-03-10T07:03:43.619Z,538.00
2023-03-10T07:07:41.325Z,519.00
2023-03-10T07:11:41.113Z,511.00
2023-03-10T07:15:41.041Z,504.00
2023-03-10T07:19:41.030Z,500.00
2023-03-10T07:23:41.305Z,501.00
2023-03-10T07:27:40.935Z,506.00
2023-03-10T07:31:40.957Z,500.00
2023-03-10T07:35:41.387Z,505.00
2023-03-10T07:39:41.333Z,505.00
2023-03-10T07:43:40.784Z,510.00
2023-03-10T07:47:40.837Z,510.00
2023-03-10T07:51:40.956Z,510.00
2023-03-10T07:55:41.368Z,517.00
2023-03-10T07:59:41.586Z,518.00
2023-03-10T08:03:41.503Z,520.00
2023-03-10T08:07:41.760Z,520.00
2023-03-10T08:11:41.683Z,516.00
2023-03-10T08:15:42.332Z,527.00
2023-03-10T08:19:42.406Z,526.00
2023-03-10T08:23:42.117Z,529.00
2023-03-10T08:27:42.116Z,535.00
2023-03-10T08:31:42.418Z,543.00
2023-03-10T08:35:42.932Z,554.00
2023-03-10T08:39:42.065Z,558.00
2023-03-10T08:43:42.035Z,549.00
2023-03-10T08:47:41.988Z,547.00
2023-03-10T08:51:41.943Z,536.00
2023-03-10T08:55:41.946Z,541.00
2023-03-10T08:59:41.905Z,540.00
2023-03-10T09:03:42.119Z,534.00
2023-03-10T09:07:42.345Z,525.00
2023-03-10T09:11:42.419Z,532.00
2023-03-10T09:15:42.571Z,531.00
2023-03-10T09:19:42.680Z,536.00
2023-03-10T09:23:42.740Z,550.00
2023-03-10T09:27:45.406Z,544.00
2023-03-10T09:31:42.901Z,508.00
2023-03-10T09:35:52.468Z,500.00
2023-03-10T09:39:43.870Z,452.00
2023-03-10T09:43:42.787Z,520.00
2023-03-10T09:47:42.992Z,550.00
2023-03-10T09:51:47.124Z,595.00
2023-03-10T09:55:47.804Z,594.00
2023-03-10T10:56:35.374Z,500.00
2023-03-10T11:00:35.282Z,490.00
2023-03-10T11:04:36.054Z,517.00
2023-03-10T11:08:35.254Z,486.00
2023-03-10T11:12:35.174Z,546.00
2023-03-10T11:16:35.131Z,561.00
2023-03-10T11:20:35.666Z,497.00
2023-03-10T11:24:35.597Z,501.00
2023-03-10T11:28:35.266Z,521.00
2023-03-10T11:32:35.567Z,531.00
2023-03-10T11:36:43.248Z,532.00
2023-03-10T11:40:36.383Z,538.00
2023-03-10T11:44:35.374Z,509.00
2023-03-10T11:48:35.312Z,525.00
2023-03-10T11:52:35.539Z,506.00
2023-03-10T11:56:35.273Z,523.00
2023-03-10T12:00:35.525Z,530.00
2023-03-10T12:04:35.650Z,578.00
2023-03-10T12:08:35.871Z,603.00
2023-03-10T12:12:36.001Z,607.00
2023-03-10T12:16:36.742Z,619.00
2023-03-10T12:20:36.592Z,609.00
2023-03-10T12:24:36.600Z,609.00
2023-03-10T12:28:36.599Z,616.00
2023-03-10T12:32:36.810Z,614.00
2023-03-10T12:36:36.966Z,620.00
2023-03-10T12:40:37.209Z,614.00
2023-03-10T12:44:37.427Z,600.00
2023-03-10T12:48:37.605Z,597.00
2023-03-10T12:52:37.793Z,596.00
2023-03-10T12:56:37.820Z,595.00
2023-03-10T13:00:37.829Z,579.00
2023-03-10T13:04:37.868Z,554.00
2023-03-10T13:08:38.027Z,549.00
2023-03-10T13:12:38.165Z,535.00
2023-03-10T13:16:38.518Z,504.00
2023-03-10T13:20:38.553Z,507.00
2023-03-10T13:24:39.146Z,548.00
2023-03-10T13:28:38.483Z,508.00
2023-03-10T13:32:38.517Z,551.00
2023-03-10T13:36:38.423Z,533.00
2023-03-10T13:40:38.440Z,532.00
2023-03-10T13:44:38.348Z,539.00
2023-03-10T13:48:38.261Z,524.00
2023-03-10T13:52:38.238Z,548.00
2023-03-10T13:56:38.636Z,560.00
2023-03-10T14:00:38.177Z,526.00
2023-03-10T14:04:38.176Z,548.00
2023-03-10T14:08:38.100Z,579.00
2023-03-10T14:12:38.019Z,617.00
2023-03-10T14:16:38.079Z,611.00
2023-03-10T14:20:38.083Z,580.00
2023-03-10T14:24:38.297Z,570.00
2023-03-10T14:28:38.442Z,577.00
2023-03-10T14:32:38.753Z,608.00
2023-03-10T14:36:38.889Z,611.00
2023-03-10T14:40:39.047Z,618.00
2023-03-10T14:44:39.271Z,608.00
2023-03-10T14:48:39.513Z,581.00
2023-03-10T14:52:39.669Z,584.00
2023-03-10T14:56:39.894Z,589.00
2023-03-10T15:00:40.103Z,609.00
2023-03-10T15:04:39.884Z,575.00
2023-03-10T15:08:39.848Z,541.00
2023-03-10T15:12:39.752Z,573.00
2023-03-10T15:16:39.781Z,546.00
2023-03-10T15:20:39.639Z,514.00
2023-03-10T15:24:39.666Z,528.00
2023-03-10T15:28:39.637Z,506.00
2023-03-10T15:32:39.631Z,538.00
2023-03-10T15:36:39.591Z,631.00
2023-03-10T15:40:39.502Z,628.00
2023-03-10T15:44:39.472Z,622.00
2023-03-10T15:48:39.399Z,642.00
2023-03-10T15:52:39.687Z,641.00
2023-03-10T15:56:39.814Z,633.00
2023-03-10T16:00:40.049Z,639.00
2023-03-10T16:04:40.306Z,636.00
2023-03-10T16:08:40.306Z,637.00
2023-03-10T16:12:40.256Z,596.00
2023-03-10T16:16:40.342Z,531.00
2023-03-10T16:20:40.339Z,530.00
2023-03-10T16:24:40.420Z,510.00
2023-03-10T16:28:40.702Z,544.00
2023-03-10T16:32:40.648Z,555.00
2023-03-10T16:36:40.631Z,554.00
2023-03-10T16:40:40.822Z,569.00
2023-03-10T16:44:40.845Z,612.00
2023-03-10T16:48:40.982Z,657.00
2023-03-10T16:52:41.063Z,656.00
2023-03-10T16:56:41.205Z,668.00
2023-03-10T17:00:41.351Z,712.00
2023-03-10T17:04:41.441Z,705.00
2023-03-10T17:08:41.445Z,714.00
2023-03-10T17:12:41.545Z,700.00
2023-03-10T17:16:41.793Z,702.00
2023-03-10T17:20:41.878Z,697.00
2023-03-10T17:24:41.992Z,702.00
2023-03-10T17:28:42.121Z,708.00
2023-03-10T17:32:42.350Z,706.00
2023-03-10T17:36:42.441Z,700.00
2023-03-10T17:40:42.615Z,701.00
2023-03-10T17:44:42.790Z,694.00
2023-03-10T17:48:42.946Z,707.00
2023-03-10T17:52:43.119Z,718.00
2023-03-10T17:56:43.330Z,713.00
2023-03-10T18:00:43.579Z,706.00
2023-03-10T18:04:43.549Z,714.00
2023-03-10T18:08:43.472Z,710.00
2023-03-10T18:12:43.447Z,699.00
2023-03-10T18:16:43.422Z,712.00
2023-03-10T18:20:43.373Z,699.00
2023-03-10T18:24:43.370Z,686.00
2023-03-10T18:28:43.331Z,705.00
2023-03-10T18:32:43.422Z,679.00
2023-03-10T18:36:43.304Z,682.00
2023-03-10T18:40:43.283Z,682.00
2023-03-10T18:44:43.242Z,663.00
2023-03-10T18:48:43.230Z,664.00
2023-03-10T18:52:43.246Z,663.00
2023-03-10T18:56:43.116Z,669.00
2023-03-10T19:00:43.146Z,662.00
2023-03-10T19:04:43.079Z,663.00
2023-03-10T19:08:43.045Z,668.00
2023-03-10T19:12:42.984Z,663.00
2023-03-10T19:16:42.951Z,655.00
2023-03-10T19:20:42.925Z,662.00
2023-03-10T19:24:42.948Z,658.00
2023-03-10T19:28:42.873Z,657.00
2023-03-10T19:32:42.826Z,658.00
2023-03-10T19:36:42.869Z,664.00
2023-03-10T19:40:42.772Z,655.00
2023-03-10T19:44:42.728Z,656.00
2023-03-10T19:48:42.749Z,656.00
2023-03-10T19:52:42.673Z,656.00
2023-03-10T19:56:42.664Z,658.00
2023-03-10T20:00:42.615Z,660.00
2023-03-10T20:04:42.547Z,654.00
2023-03-10T20:08:42.487Z,657.00
2023-03-10T20:12:42.482Z,652.00
2023-03-10T20:16:42.478Z,657.00
2023-03-10T20:20:42.391Z,648.00
2023-03-10T20:24:42.337Z,656.00
2023-03-10T20:28:43.226Z,652.00
2023-03-10T20:32:42.318Z,657.00
2023-03-10T20:36:42.251Z,663.00
2023-03-10T20:40:42.251Z,644.00
2023-03-10T20:44:42.170Z,649.00
2023-03-10T20:48:42.190Z,654.00
2023-03-10T20:52:42.129Z,661.00
2023-03-10T20:56:42.037Z,671.00
2023-03-10T21:00:42.071Z,670.00
2023-03-10T21:04:42.214Z,697.00
2023-03-10T21:08:42.177Z,694.00
2023-03-10T21:12:42.243Z,699.00
2023-03-10T21:16:42.376Z,715.00
2023-03-10T21:20:42.781Z,713.00
2023-03-10T21:24:42.481Z,706.00
2023-03-10T21:28:42.572Z,701.00
2023-03-10T21:32:42.753Z,718.00
2023-03-10T21:36:42.766Z,700.00
2023-03-10T21:40:42.905Z,704.00
2023-03-10T21:44:43.073Z,702.00
2023-03-10T21:48:43.175Z,710.00
2023-03-10T21:52:43.332Z,705.00
2023-03-10T21:56:43.480Z,702.00
2023-03-10T22:00:43.557Z,708.00
2023-03-10T22:04:43.703Z,719.00
2023-03-10T22:08:43.865Z,695.00
2023-03-10T22:12:43.976Z,705.00
2023-03-10T22:16:44.174Z,693.00
2023-03-10T22:20:44.344Z,689.00
2023-03-10T22:24:44.449Z,701.00
2023-03-10T22:28:44.622Z,677.00
2023-03-10T22:32:44.850Z,685.00
2023-03-10T22:36:44.921Z,676.00
2023-03-10T22:40:45.099Z,688.00
2023-03-10T22:44:45.274Z,673.00
2023-03-10T22:48:45.467Z,671.00
2023-03-10T22:52:45.543Z,665.00
2023-03-10T22:56:45.856Z,672.00
2023-03-10T23:00:46.370Z,667.00
2023-03-10T23:04:46.120Z,664.00
2023-03-10T23:08:46.315Z,666.00
2023-03-10T23:12:46.501Z,660.00
2023-03-10T23:16:46.695Z,656.00
2023-03-10T23:20:46.856Z,660.00
2023-03-10T23:24:47.045Z,656.00
2023-03-10T23:28:47.207Z,658.00
2023-03-10T23:32:47.508Z,658.00
2023-03-10T23:36:47.615Z,662.00
2023-03-10T23:40:47.860Z,652.00
2023-03-10T23:44:47.976Z,654.00
2023-03-10T23:48:48.224Z,652.00
2023-03-10T23:52:48.363Z,654.00
2023-03-10T23:56:48.563Z,654.00
